sensor_id;sensor_type;location;lat;lon;timestamp;temperature;humidity
51801;DHT22;37855;53.204;6.568;2022-10-16T00:01:25;13.10;99.90
51801;DHT22;37855;53.204;6.568;2022-10-16T00:03:51;13.30;99.90
51801;DHT22;37855;53.204;6.568;2022-10-16T00:06:19;13.10;99.90
51801;DHT22;37855;53.204;6.568;2022-10-16T00:08:45;13.20;99.90
51801;DHT22;37855;53.204;6.568;2022-10-16T00:11:15;13.10;99.90
51801;DHT22;37855;53.204;6.568;2022-10-16T00:13:44;13.10;99.90
51801;DHT22;37855;53.204;6.568;2022-10-16T00:16:12;13.10;99.90
51801;DHT22;37855;53.204;6.568;2022-10-16T00:18:39;12.80;99.90
51801;DHT22;37855;53.204;6.568;2022-10-16T00:21:10;13.10;99.90
51801;DHT22;37855;53.204;6.568;2022-10-16T00:23:36;13.00;99.90
51801;DHT22;37855;53.204;6.568;2022-10-16T00:26:05;13.10;99.90
51801;DHT22;37855;53.204;6.568;2022-10-16T00:28:35;13.00;99.90
51801;DHT22;37855;53.204;6.568;2022-10-16T00:31:06;13.00;99.90
51801;DHT22;37855;53.204;6.568;2022-10-16T00:33:33;13.00;99.90
51801;DHT22;37855;53.204;6.568;2022-10-16T00:36:00;13.00;99.90
51801;DHT22;37855;53.204;6.568;2022-10-16T00:38:26;13.00;99.90
51801;DHT22;37855;53.204;6.568;2022-10-16T00:40:52;13.00;99.90
51801;DHT22;37855;53.204;6.568;2022-10-16T00:43:46;13.00;99.90
51801;DHT22;37855;53.204;6.568;2022-10-16T00:46:24;13.00;99.90
51801;DHT22;37855;53.204;6.568;2022-10-16T00:49:06;13.00;99.90
51801;DHT22;37855;53.204;6.568;2022-10-16T00:51:40;13.00;99.90
51801;DHT22;37855;53.204;6.568;2022-10-16T00:54:16;13.20;99.90
51801;DHT22;37855;53.204;6.568;2022-10-16T00:56:44;13.00;99.90
51801;DHT22;37855;53.204;6.568;2022-10-16T00:59:20;12.90;99.90
51801;DHT22;37855;53.204;6.568;2022-10-16T01:01:48;13.00;99.90
51801;DHT22;37855;53.204;6.568;2022-10-16T01:04:15;13.00;99.90
51801;DHT22;37855;53.204;6.568;2022-10-16T01:07:12;13.00;99.90
51801;DHT22;37855;53.204;6.568;2022-10-16T01:10:17;13.00;99.90
51801;DHT22;37855;53.204;6.568;2022-10-16T01:15:33;13.00;99.90
51801;DHT22;37855;53.204;6.568;2022-10-16T01:18:09;13.00;99.90
51801;DHT22;37855;53.204;6.568;2022-10-16T01:21:06;13.00;99.90
51801;DHT22;37855;53.204;6.568;2022-10-16T01:29:23;13.00;99.90
51801;DHT22;37855;53.204;6.568;2022-10-16T01:31:57;13.00;99.90
51801;DHT22;37855;53.204;6.568;2022-10-16T01:35:02;13.00;99.90
51801;DHT22;37855;53.204;6.568;2022-10-16T01:37:36;13.00;99.90
51801;DHT22;37855;53.204;6.568;2022-10-16T01:40:08;13.10;99.90
51801;DHT22;37855;53.204;6.568;2022-10-16T01:42:42;13.00;99.90
51801;DHT22;37855;53.204;6.568;2022-10-16T01:45:14;13.00;99.90
51801;DHT22;37855;53.204;6.568;2022-10-16T01:47:41;13.20;99.90
51801;DHT22;37855;53.204;6.568;2022-10-16T01:50:07;13.00;99.90
51801;DHT22;37855;53.204;6.568;2022-10-16T01:52:37;13.00;99.90
51801;DHT22;37855;53.204;6.568;2022-10-16T01:55:06;13.00;99.90
51801;DHT22;37855;53.204;6.568;2022-10-16T01:57:35;13.00;99.90
51801;DHT22;37855;53.204;6.568;2022-10-16T02:00:07;13.00;99.90
51801;DHT22;37855;53.204;6.568;2022-10-16T02:02:34;13.00;99.90
51801;DHT22;37855;53.204;6.568;2022-10-16T02:05:49;13.00;99.90
51801;DHT22;37855;53.204;6.568;2022-10-16T02:08:12;13.00;99.90
51801;DHT22;37855;53.204;6.568;2022-10-16T02:10:38;13.00;99.90
51801;DHT22;37855;53.204;6.568;2022-10-16T02:13:37;13.00;99.90
51801;DHT22;37855;53.204;6.568;2022-10-16T02:16:04;13.00;99.90
51801;DHT22;37855;53.204;6.568;2022-10-16T02:18:30;13.00;99.90
51801;DHT22;37855;53.204;6.568;2022-10-16T02:21:02;13.10;99.90
51801;DHT22;37855;53.204;6.568;2022-10-16T02:26:30;13.10;99.90
51801;DHT22;37855;53.204;6.568;2022-10-16T02:29:07;13.10;99.90
51801;DHT22;37855;53.204;6.568;2022-10-16T02:31:39;13.20;99.90
51801;DHT22;37855;53.204;6.568;2022-10-16T02:34:07;13.10;99.90
51801;DHT22;37855;53.204;6.568;2022-10-16T02:36:34;13.10;99.90
51801;DHT22;37855;53.204;6.568;2022-10-16T02:39:01;13.10;99.90
51801;DHT22;37855;53.204;6.568;2022-10-16T02:41:29;13.10;99.90
51801;DHT22;37855;53.204;6.568;2022-10-16T02:43:55;13.10;99.90
51801;DHT22;37855;53.204;6.568;2022-10-16T02:46:21;13.20;99.90
51801;DHT22;37855;53.204;6.568;2022-10-16T02:48:48;13.10;99.90
51801;DHT22;37855;53.204;6.568;2022-10-16T02:51:14;13.10;99.90
51801;DHT22;37855;53.204;6.568;2022-10-16T02:53:40;13.40;99.90
51801;DHT22;37855;53.204;6.568;2022-10-16T02:56:07;13.10;99.90
51801;DHT22;37855;53.204;6.568;2022-10-16T02:58:32;13.10;99.90
51801;DHT22;37855;53.204;6.568;2022-10-16T03:00:58;13.20;99.90
51801;DHT22;37855;53.204;6.568;2022-10-16T03:03:24;13.10;99.90
51801;DHT22;37855;53.204;6.568;2022-10-16T03:05:49;13.10;99.90
51801;DHT22;37855;53.204;6.568;2022-10-16T03:08:15;13.20;99.90
51801;DHT22;37855;53.204;6.568;2022-10-16T03:10:41;13.20;99.90
51801;DHT22;37855;53.204;6.568;2022-10-16T03:13:06;13.20;99.90
51801;DHT22;37855;53.204;6.568;2022-10-16T03:15:32;13.20;99.90
51801;DHT22;37855;53.204;6.568;2022-10-16T03:17:58;13.30;99.90
51801;DHT22;37855;53.204;6.568;2022-10-16T03:20:24;13.20;99.90
51801;DHT22;37855;53.204;6.568;2022-10-16T03:22:51;13.30;99.90
51801;DHT22;37855;53.204;6.568;2022-10-16T03:25:17;13.20;99.90
51801;DHT22;37855;53.204;6.568;2022-10-16T03:27:43;13.20;99.90
51801;DHT22;37855;53.204;6.568;2022-10-16T03:30:09;13.50;99.90
51801;DHT22;37855;53.204;6.568;2022-10-16T03:32:34;13.20;99.90
51801;DHT22;37855;53.204;6.568;2022-10-16T03:35:00;13.20;99.90
51801;DHT22;37855;53.204;6.568;2022-10-16T03:37:26;13.20;99.90
51801;DHT22;37855;53.204;6.568;2022-10-16T03:39:51;13.20;99.90
51801;DHT22;37855;53.204;6.568;2022-10-16T03:42:17;13.20;99.90
51801;DHT22;37855;53.204;6.568;2022-10-16T03:44:43;13.20;99.90
51801;DHT22;37855;53.204;6.568;2022-10-16T03:47:08;13.50;99.90
51801;DHT22;37855;53.204;6.568;2022-10-16T03:49:34;13.10;99.90
51801;DHT22;37855;53.204;6.568;2022-10-16T03:52:00;13.20;99.90
51801;DHT22;37855;53.204;6.568;2022-10-16T03:54:25;13.10;99.90
51801;DHT22;37855;53.204;6.568;2022-10-16T03:56:51;13.10;99.90
51801;DHT22;37855;53.204;6.568;2022-10-16T03:59:16;13.10;99.90
51801;DHT22;37855;53.204;6.568;2022-10-16T04:01:42;13.10;99.90
51801;DHT22;37855;53.204;6.568;2022-10-16T04:04:08;13.10;99.90
51801;DHT22;37855;53.204;6.568;2022-10-16T04:06:33;13.20;99.90
51801;DHT22;37855;53.204;6.568;2022-10-16T04:08:59;13.10;99.90
51801;DHT22;37855;53.204;6.568;2022-10-16T04:11:25;13.40;99.90
51801;DHT22;37855;53.204;6.568;2022-10-16T04:13:50;13.10;99.90
51801;DHT22;37855;53.204;6.568;2022-10-16T04:16:16;13.00;99.90
51801;DHT22;37855;53.204;6.568;2022-10-16T04:18:42;13.00;99.90
51801;DHT22;37855;53.204;6.568;2022-10-16T04:21:07;13.00;99.90
51801;DHT22;37855;53.204;6.568;2022-10-16T04:23:33;13.00;99.90
51801;DHT22;37855;53.204;6.568;2022-10-16T04:26:00;13.00;99.90
51801;DHT22;37855;53.204;6.568;2022-10-16T04:28:25;12.90;99.90
51801;DHT22;37855;53.204;6.568;2022-10-16T04:30:52;12.90;99.90
51801;DHT22;37855;53.204;6.568;2022-10-16T04:33:17;13.00;99.90
51801;DHT22;37855;53.204;6.568;2022-10-16T04:35:44;13.10;99.90
51801;DHT22;37855;53.204;6.568;2022-10-16T04:38:10;12.90;99.90
51801;DHT22;37855;53.204;6.568;2022-10-16T04:40:35;13.00;99.90
51801;DHT22;37855;53.204;6.568;2022-10-16T04:43:02;12.90;99.90
51801;DHT22;37855;53.204;6.568;2022-10-16T04:45:29;12.90;99.90
51801;DHT22;37855;53.204;6.568;2022-10-16T04:47:58;13.00;99.90
51801;DHT22;37855;53.204;6.568;2022-10-16T04:50:27;12.90;99.90
51801;DHT22;37855;53.204;6.568;2022-10-16T04:52:57;12.90;99.90
51801;DHT22;37855;53.204;6.568;2022-10-16T04:55:22;12.90;99.90
51801;DHT22;37855;53.204;6.568;2022-10-16T04:57:48;12.90;99.90
51801;DHT22;37855;53.204;6.568;2022-10-16T05:00:14;13.00;99.90
51801;DHT22;37855;53.204;6.568;2022-10-16T05:02:39;13.00;99.90
51801;DHT22;37855;53.204;6.568;2022-10-16T05:05:05;13.00;99.90
51801;DHT22;37855;53.204;6.568;2022-10-16T05:07:32;13.00;99.90
51801;DHT22;37855;53.204;6.568;2022-10-16T05:09:58;13.00;99.90
51801;DHT22;37855;53.204;6.568;2022-10-16T05:12:24;13.00;99.90
51801;DHT22;37855;53.204;6.568;2022-10-16T05:14:49;13.00;99.90
51801;DHT22;37855;53.204;6.568;2022-10-16T05:17:16;13.10;99.90
51801;DHT22;37855;53.204;6.568;2022-10-16T05:19:42;13.00;99.90
51801;DHT22;37855;53.204;6.568;2022-10-16T05:22:07;13.00;99.90
51801;DHT22;37855;53.204;6.568;2022-10-16T05:24:34;13.00;99.90
51801;DHT22;37855;53.204;6.568;2022-10-16T05:27:00;13.00;99.90
51801;DHT22;37855;53.204;6.568;2022-10-16T05:29:25;13.10;99.90
51801;DHT22;37855;53.204;6.568;2022-10-16T05:31:54;13.00;99.90
51801;DHT22;37855;53.204;6.568;2022-10-16T05:34:20;13.00;99.90
51801;DHT22;37855;53.204;6.568;2022-10-16T05:36:46;13.00;99.90
51801;DHT22;37855;53.204;6.568;2022-10-16T05:39:14;13.00;99.90
51801;DHT22;37855;53.204;6.568;2022-10-16T05:41:40;13.10;99.90
51801;DHT22;37855;53.204;6.568;2022-10-16T05:44:06;13.10;99.90
51801;DHT22;37855;53.204;6.568;2022-10-16T05:46:32;13.00;99.90
51801;DHT22;37855;53.204;6.568;2022-10-16T05:48:58;13.30;99.90
51801;DHT22;37855;53.204;6.568;2022-10-16T05:51:24;12.90;99.90
51801;DHT22;37855;53.204;6.568;2022-10-16T05:53:50;13.00;99.90
51801;DHT22;37855;53.204;6.568;2022-10-16T05:56:15;12.90;99.90
51801;DHT22;37855;53.204;6.568;2022-10-16T05:58:42;13.00;99.90
51801;DHT22;37855;53.204;6.568;2022-10-16T06:01:14;13.00;99.90
51801;DHT22;37855;53.204;6.568;2022-10-16T06:03:41;13.00;99.90
51801;DHT22;37855;53.204;6.568;2022-10-16T06:06:12;12.90;99.90
51801;DHT22;37855;53.204;6.568;2022-10-16T06:08:39;13.00;99.90
51801;DHT22;37855;53.204;6.568;2022-10-16T06:11:07;13.00;99.90
51801;DHT22;37855;53.204;6.568;2022-10-16T06:13:33;13.00;99.90
51801;DHT22;37855;53.204;6.568;2022-10-16T06:16:00;12.90;99.90
51801;DHT22;37855;53.204;6.568;2022-10-16T06:18:27;13.00;99.90
51801;DHT22;37855;53.204;6.568;2022-10-16T06:20:54;12.90;99.90
51801;DHT22;37855;53.204;6.568;2022-10-16T06:23:20;13.00;99.90
51801;DHT22;37855;53.204;6.568;2022-10-16T06:25:45;13.50;99.90
51801;DHT22;37855;53.204;6.568;2022-10-16T06:28:13;13.00;99.90
51801;DHT22;37855;53.204;6.568;2022-10-16T06:30:38;13.00;99.90
51801;DHT22;37855;53.204;6.568;2022-10-16T06:33:04;13.00;99.90
51801;DHT22;37855;53.204;6.568;2022-10-16T06:35:30;13.00;99.90
51801;DHT22;37855;53.204;6.568;2022-10-16T06:37:57;13.00;99.90
51801;DHT22;37855;53.204;6.568;2022-10-16T06:40:23;13.00;99.90
51801;DHT22;37855;53.204;6.568;2022-10-16T06:42:48;13.00;99.90
51801;DHT22;37855;53.204;6.568;2022-10-16T06:45:14;13.10;99.90
51801;DHT22;37855;53.204;6.568;2022-10-16T06:47:39;13.70;99.90
51801;DHT22;37855;53.204;6.568;2022-10-16T06:50:08;13.10;99.90
51801;DHT22;37855;53.204;6.568;2022-10-16T06:52:34;13.10;99.90
51801;DHT22;37855;53.204;6.568;2022-10-16T06:55:00;13.10;99.90
51801;DHT22;37855;53.204;6.568;2022-10-16T06:57:30;13.20;99.90
51801;DHT22;37855;53.204;6.568;2022-10-16T06:59:56;13.20;99.90
51801;DHT22;37855;53.204;6.568;2022-10-16T07:02:23;13.20;99.90
51801;DHT22;37855;53.204;6.568;2022-10-16T07:04:48;13.20;99.90
51801;DHT22;37855;53.204;6.568;2022-10-16T07:07:14;13.30;99.90
51801;DHT22;37855;53.204;6.568;2022-10-16T07:09:41;13.30;99.90
51801;DHT22;37855;53.204;6.568;2022-10-16T07:12:06;13.30;99.90
51801;DHT22;37855;53.204;6.568;2022-10-16T07:14:32;13.30;99.90
51801;DHT22;37855;53.204;6.568;2022-10-16T07:16:58;13.30;99.90
51801;DHT22;37855;53.204;6.568;2022-10-16T07:19:23;13.30;99.90
51801;DHT22;37855;53.204;6.568;2022-10-16T07:21:50;13.30;99.90
51801;DHT22;37855;53.204;6.568;2022-10-16T07:24:16;13.30;99.90
51801;DHT22;37855;53.204;6.568;2022-10-16T07:26:43;13.30;99.90
51801;DHT22;37855;53.204;6.568;2022-10-16T07:29:19;13.30;99.90
51801;DHT22;37855;53.204;6.568;2022-10-16T07:31:46;13.30;99.90
51801;DHT22;37855;53.204;6.568;2022-10-16T07:34:14;13.30;99.90
51801;DHT22;37855;53.204;6.568;2022-10-16T07:36:40;13.50;99.90
51801;DHT22;37855;53.204;6.568;2022-10-16T07:39:05;13.40;99.90
51801;DHT22;37855;53.204;6.568;2022-10-16T07:41:31;13.60;99.90
51801;DHT22;37855;53.204;6.568;2022-10-16T07:43:58;13.40;99.90
51801;DHT22;37855;53.204;6.568;2022-10-16T07:46:28;13.40;99.90
51801;DHT22;37855;53.204;6.568;2022-10-16T07:48:53;13.40;99.90
51801;DHT22;37855;53.204;6.568;2022-10-16T07:51:21;13.50;99.90
51801;DHT22;37855;53.204;6.568;2022-10-16T07:53:48;13.50;99.90
51801;DHT22;37855;53.204;6.568;2022-10-16T07:56:15;13.50;99.90
51801;DHT22;37855;53.204;6.568;2022-10-16T07:58:42;13.50;99.90
51801;DHT22;37855;53.204;6.568;2022-10-16T08:01:13;13.50;99.90
51801;DHT22;37855;53.204;6.568;2022-10-16T08:03:47;13.50;99.90
51801;DHT22;37855;53.204;6.568;2022-10-16T08:06:14;13.50;99.90
51801;DHT22;37855;53.204;6.568;2022-10-16T08:08:43;13.50;99.90
51801;DHT22;37855;53.204;6.568;2022-10-16T08:11:09;13.50;99.90
51801;DHT22;37855;53.204;6.568;2022-10-16T08:13:35;13.50;99.90
51801;DHT22;37855;53.204;6.568;2022-10-16T08:16:01;13.50;99.90
51801;DHT22;37855;53.204;6.568;2022-10-16T08:18:27;13.60;99.90
51801;DHT22;37855;53.204;6.568;2022-10-16T08:20:57;13.60;99.90
51801;DHT22;37855;53.204;6.568;2022-10-16T08:23:23;13.70;99.90
51801;DHT22;37855;53.204;6.568;2022-10-16T08:25:51;13.70;99.90
51801;DHT22;37855;53.204;6.568;2022-10-16T08:28:18;13.80;99.90
51801;DHT22;37855;53.204;6.568;2022-10-16T08:30:44;13.80;99.90
51801;DHT22;37855;53.204;6.568;2022-10-16T08:33:10;13.90;99.90
51801;DHT22;37855;53.204;6.568;2022-10-16T08:35:35;14.00;99.90
51801;DHT22;37855;53.204;6.568;2022-10-16T08:38:05;14.10;99.90
51801;DHT22;37855;53.204;6.568;2022-10-16T08:40:42;14.20;99.90
51801;DHT22;37855;53.204;6.568;2022-10-16T08:46:19;14.30;99.90
51801;DHT22;37855;53.204;6.568;2022-10-16T08:48:58;14.30;99.90
51801;DHT22;37855;53.204;6.568;2022-10-16T08:51:35;14.40;99.90
51801;DHT22;37855;53.204;6.568;2022-10-16T08:54:11;14.50;99.90
51801;DHT22;37855;53.204;6.568;2022-10-16T08:56:41;14.50;99.90
51801;DHT22;37855;53.204;6.568;2022-10-16T08:59:10;14.50;99.90
51801;DHT22;37855;53.204;6.568;2022-10-16T09:01:49;14.60;99.90
51801;DHT22;37855;53.204;6.568;2022-10-16T09:07:04;14.70;99.90
51801;DHT22;37855;53.204;6.568;2022-10-16T09:10:02;14.70;99.90
51801;DHT22;37855;53.204;6.568;2022-10-16T09:12:51;14.80;99.90
51801;DHT22;37855;53.204;6.568;2022-10-16T09:18:54;15.00;99.90
51801;DHT22;37855;53.204;6.568;2022-10-16T09:21:19;15.00;99.90
51801;DHT22;37855;53.204;6.568;2022-10-16T09:23:50;15.00;99.90
51801;DHT22;37855;53.204;6.568;2022-10-16T09:26:16;15.30;99.90
51801;DHT22;37855;53.204;6.568;2022-10-16T09:28:43;15.00;99.90
51801;DHT22;37855;53.204;6.568;2022-10-16T09:31:20;15.10;99.90
51801;DHT22;37855;53.204;6.568;2022-10-16T09:33:57;15.10;99.90
51801;DHT22;37855;53.204;6.568;2022-10-16T09:36:25;15.20;99.90
51801;DHT22;37855;53.204;6.568;2022-10-16T09:39:05;15.10;99.90
51801;DHT22;37855;53.204;6.568;2022-10-16T09:41:34;15.20;99.90
51801;DHT22;37855;53.204;6.568;2022-10-16T09:44:02;15.20;99.90
51801;DHT22;37855;53.204;6.568;2022-10-16T09:46:34;15.20;99.90
51801;DHT22;37855;53.204;6.568;2022-10-16T09:49:18;15.20;99.90
51801;DHT22;37855;53.204;6.568;2022-10-16T09:51:44;15.20;99.90
51801;DHT22;37855;53.204;6.568;2022-10-16T09:54:20;15.20;99.90
51801;DHT22;37855;53.204;6.568;2022-10-16T09:56:47;15.30;99.90
51801;DHT22;37855;53.204;6.568;2022-10-16T09:59:21;15.20;99.90
51801;DHT22;37855;53.204;6.568;2022-10-16T10:02:02;15.20;99.90
51801;DHT22;37855;53.204;6.568;2022-10-16T10:04:41;15.30;99.90
51801;DHT22;37855;53.204;6.568;2022-10-16T10:07:46;15.30;99.90
51801;DHT22;37855;53.204;6.568;2022-10-16T10:10:23;15.50;99.90
51801;DHT22;37855;53.204;6.568;2022-10-16T10:12:49;15.40;99.90
51801;DHT22;37855;53.204;6.568;2022-10-16T10:15:15;15.40;99.90
51801;DHT22;37855;53.204;6.568;2022-10-16T10:17:57;15.50;99.90
51801;DHT22;37855;53.204;6.568;2022-10-16T10:20:31;15.50;99.90
51801;DHT22;37855;53.204;6.568;2022-10-16T10:23:13;15.50;99.90
51801;DHT22;37855;53.204;6.568;2022-10-16T10:36:56;15.70;99.90
51801;DHT22;37855;53.204;6.568;2022-10-16T10:39:47;15.80;99.90
51801;DHT22;37855;53.204;6.568;2022-10-16T10:42:44;15.80;99.90
51801;DHT22;37855;53.204;6.568;2022-10-16T10:45:38;15.90;99.90
51801;DHT22;37855;53.204;6.568;2022-10-16T10:51:07;16.20;99.90
51801;DHT22;37855;53.204;6.568;2022-10-16T11:01:52;16.40;99.90
51801;DHT22;37855;53.204;6.568;2022-10-16T11:07:04;16.30;98.80
51801;DHT22;37855;53.204;6.568;2022-10-16T11:09:35;16.20;98.10
51801;DHT22;37855;53.204;6.568;2022-10-16T11:12:16;16.10;97.90
51801;DHT22;37855;53.204;6.568;2022-10-16T11:14:48;16.10;96.30
51801;DHT22;37855;53.204;6.568;2022-10-16T11:18:04;16.00;95.60
51801;DHT22;37855;53.204;6.568;2022-10-16T11:20:42;16.10;93.80
51801;DHT22;37855;53.204;6.568;2022-10-16T11:23:27;16.10;94.90
51801;DHT22;37855;53.204;6.568;2022-10-16T11:25:57;16.10;94.80
51801;DHT22;37855;53.204;6.568;2022-10-16T11:28:34;16.10;94.20
51801;DHT22;37855;53.204;6.568;2022-10-16T11:31:10;16.20;93.50
51801;DHT22;37855;53.204;6.568;2022-10-16T11:33:45;16.20;92.90
51801;DHT22;37855;53.204;6.568;2022-10-16T11:36:20;16.20;93.10
51801;DHT22;37855;53.204;6.568;2022-10-16T11:44:08;16.30;92.90
51801;DHT22;37855;53.204;6.568;2022-10-16T11:46:41;16.30;92.00
51801;DHT22;37855;53.204;6.568;2022-10-16T11:49:21;16.40;90.50
51801;DHT22;37855;53.204;6.568;2022-10-16T11:52:16;16.40;90.40
51801;DHT22;37855;53.204;6.568;2022-10-16T11:54:52;16.40;87.10
51801;DHT22;37855;53.204;6.568;2022-10-16T11:57:50;16.40;87.00
51801;DHT22;37855;53.204;6.568;2022-10-16T12:00:39;16.40;88.40
51801;DHT22;37855;53.204;6.568;2022-10-16T12:06:14;16.40;90.10
51801;DHT22;37855;53.204;6.568;2022-10-16T12:08:46;16.40;88.30
51801;DHT22;37855;53.204;6.568;2022-10-16T12:11:32;16.40;89.90
51801;DHT22;37855;53.204;6.568;2022-10-16T12:16:57;16.50;88.30
51801;DHT22;37855;53.204;6.568;2022-10-16T12:19:29;16.50;89.20
51801;DHT22;37855;53.204;6.568;2022-10-16T12:22:15;16.50;89.90
51801;DHT22;37855;53.204;6.568;2022-10-16T12:24:43;16.40;88.90
51801;DHT22;37855;53.204;6.568;2022-10-16T12:27:41;16.40;90.20
51801;DHT22;37855;53.204;6.568;2022-10-16T12:30:14;16.40;90.30
51801;DHT22;37855;53.204;6.568;2022-10-16T12:32:54;16.30;90.70
51801;DHT22;37855;53.204;6.568;2022-10-16T12:35:26;16.20;89.40
51801;DHT22;37855;53.204;6.568;2022-10-16T12:38:07;16.10;90.50
51801;DHT22;37855;53.204;6.568;2022-10-16T12:40:35;16.10;90.40
51801;DHT22;37855;53.204;6.568;2022-10-16T12:48:27;16.00;90.40
51801;DHT22;37855;53.204;6.568;2022-10-16T12:50:53;16.00;90.40
51801;DHT22;37855;53.204;6.568;2022-10-16T12:53:26;16.10;90.60
51801;DHT22;37855;53.204;6.568;2022-10-16T12:56:18;16.10;90.10
51801;DHT22;37855;53.204;6.568;2022-10-16T13:01:42;16.20;89.80
51801;DHT22;37855;53.204;6.568;2022-10-16T13:04:15;16.10;89.80
51801;DHT22;37855;53.204;6.568;2022-10-16T13:07:03;16.20;90.40
51801;DHT22;37855;53.204;6.568;2022-10-16T13:18:12;16.20;84.60
51801;DHT22;37855;53.204;6.568;2022-10-16T13:21:07;16.10;85.40
51801;DHT22;37855;53.204;6.568;2022-10-16T13:29:08;16.00;86.90
51801;DHT22;37855;53.204;6.568;2022-10-16T13:31:38;16.10;86.90
51801;DHT22;37855;53.204;6.568;2022-10-16T13:34:05;16.00;86.00
51801;DHT22;37855;53.204;6.568;2022-10-16T13:36:43;16.10;86.50
51801;DHT22;37855;53.204;6.568;2022-10-16T13:39:14;16.10;87.60
51801;DHT22;37855;53.204;6.568;2022-10-16T13:41:40;16.10;87.20
51801;DHT22;37855;53.204;6.568;2022-10-16T13:44:14;16.10;87.50
51801;DHT22;37855;53.204;6.568;2022-10-16T13:46:41;16.00;86.70
51801;DHT22;37855;53.204;6.568;2022-10-16T13:49:17;16.20;87.80
51801;DHT22;37855;53.204;6.568;2022-10-16T13:51:55;16.00;87.50
51801;DHT22;37855;53.204;6.568;2022-10-16T13:54:23;16.00;87.60
51801;DHT22;37855;53.204;6.568;2022-10-16T13:56:49;16.10;88.00
51801;DHT22;37855;53.204;6.568;2022-10-16T13:59:26;16.00;88.40
51801;DHT22;37855;53.204;6.568;2022-10-16T14:01:55;16.00;87.90
51801;DHT22;37855;53.204;6.568;2022-10-16T14:04:23;16.00;90.00
51801;DHT22;37855;53.204;6.568;2022-10-16T14:06:54;16.00;90.50
51801;DHT22;37855;53.204;6.568;2022-10-16T14:09:26;16.00;90.20
51801;DHT22;37855;53.204;6.568;2022-10-16T14:12:07;16.10;90.00
51801;DHT22;37855;53.204;6.568;2022-10-16T14:14:54;16.10;89.50
51801;DHT22;37855;53.204;6.568;2022-10-16T14:17:24;16.10;89.40
51801;DHT22;37855;53.204;6.568;2022-10-16T14:19:53;16.10;90.30
51801;DHT22;37855;53.204;6.568;2022-10-16T14:24:48;16.20;90.30
51801;DHT22;37855;53.204;6.568;2022-10-16T14:27:30;16.30;90.20
51801;DHT22;37855;53.204;6.568;2022-10-16T14:30:25;16.20;90.10
51801;DHT22;37855;53.204;6.568;2022-10-16T14:33:04;16.20;90.60
51801;DHT22;37855;53.204;6.568;2022-10-16T14:35:34;16.10;90.90
51801;DHT22;37855;53.204;6.568;2022-10-16T14:38:02;16.10;91.00
51801;DHT22;37855;53.204;6.568;2022-10-16T14:40:31;16.10;90.90
51801;DHT22;37855;53.204;6.568;2022-10-16T14:42:58;16.10;91.20
51801;DHT22;37855;53.204;6.568;2022-10-16T14:45:27;16.00;91.40
51801;DHT22;37855;53.204;6.568;2022-10-16T14:47:59;16.00;91.60
51801;DHT22;37855;53.204;6.568;2022-10-16T14:50:28;16.10;91.70
51801;DHT22;37855;53.204;6.568;2022-10-16T14:52:54;16.00;91.80
51801;DHT22;37855;53.204;6.568;2022-10-16T14:55:20;15.90;92.10
51801;DHT22;37855;53.204;6.568;2022-10-16T14:57:46;15.90;92.30
51801;DHT22;37855;53.204;6.568;2022-10-16T15:00:17;16.00;92.70
51801;DHT22;37855;53.204;6.568;2022-10-16T15:02:47;15.90;92.90
51801;DHT22;37855;53.204;6.568;2022-10-16T15:05:20;15.80;93.10
51801;DHT22;37855;53.204;6.568;2022-10-16T15:07:47;15.80;93.30
51801;DHT22;37855;53.204;6.568;2022-10-16T15:10:15;15.70;93.00
51801;DHT22;37855;53.204;6.568;2022-10-16T15:12:40;15.80;93.00
51801;DHT22;37855;53.204;6.568;2022-10-16T15:15:28;15.70;93.20
51801;DHT22;37855;53.204;6.568;2022-10-16T15:17:57;15.70;93.30
51801;DHT22;37855;53.204;6.568;2022-10-16T15:20:24;15.70;93.10
51801;DHT22;37855;53.204;6.568;2022-10-16T15:22:50;15.70;93.00
51801;DHT22;37855;53.204;6.568;2022-10-16T15:27:57;15.70;92.60
51801;DHT22;37855;53.204;6.568;2022-10-16T15:30:23;15.60;92.40
51801;DHT22;37855;53.204;6.568;2022-10-16T15:32:49;15.60;92.20
51801;DHT22;37855;53.204;6.568;2022-10-16T15:35:14;15.70;92.20
51801;DHT22;37855;53.204;6.568;2022-10-16T15:37:40;15.60;92.30
51801;DHT22;37855;53.204;6.568;2022-10-16T15:40:08;15.60;92.50
51801;DHT22;37855;53.204;6.568;2022-10-16T15:42:36;15.50;92.20
51801;DHT22;37855;53.204;6.568;2022-10-16T15:45:03;15.50;92.30
51801;DHT22;37855;53.204;6.568;2022-10-16T15:47:32;15.50;92.60
51801;DHT22;37855;53.204;6.568;2022-10-16T15:49:58;15.40;92.70
51801;DHT22;37855;53.204;6.568;2022-10-16T15:52:24;15.40;92.80
51801;DHT22;37855;53.204;6.568;2022-10-16T15:54:50;15.40;92.90
51801;DHT22;37855;53.204;6.568;2022-10-16T15:57:15;15.40;92.70
51801;DHT22;37855;53.204;6.568;2022-10-16T15:59:41;15.40;93.00
51801;DHT22;37855;53.204;6.568;2022-10-16T16:02:08;15.30;93.30
51801;DHT22;37855;53.204;6.568;2022-10-16T16:04:34;15.30;93.50
51801;DHT22;37855;53.204;6.568;2022-10-16T16:07:00;15.30;93.60
51801;DHT22;37855;53.204;6.568;2022-10-16T16:09:29;15.20;93.50
51801;DHT22;37855;53.204;6.568;2022-10-16T16:11:55;15.20;93.70
51801;DHT22;37855;53.204;6.568;2022-10-16T16:14:20;15.20;93.90
51801;DHT22;37855;53.204;6.568;2022-10-16T16:16:46;15.10;94.00
51801;DHT22;37855;53.204;6.568;2022-10-16T16:19:12;15.10;94.10
51801;DHT22;37855;53.204;6.568;2022-10-16T16:21:38;15.20;94.50
51801;DHT22;37855;53.204;6.568;2022-10-16T16:24:04;15.10;94.50
51801;DHT22;37855;53.204;6.568;2022-10-16T16:26:34;15.00;94.90
51801;DHT22;37855;53.204;6.568;2022-10-16T16:29:03;15.00;95.00
51801;DHT22;37855;53.204;6.568;2022-10-16T16:31:30;15.00;95.40
51801;DHT22;37855;53.204;6.568;2022-10-16T16:33:57;14.90;95.80
51801;DHT22;37855;53.204;6.568;2022-10-16T16:36:24;14.90;96.30
51801;DHT22;37855;53.204;6.568;2022-10-16T16:38:51;14.80;96.80
51801;DHT22;37855;53.204;6.568;2022-10-16T16:41:22;14.80;97.30
51801;DHT22;37855;53.204;6.568;2022-10-16T16:43:48;14.80;97.60
51801;DHT22;37855;53.204;6.568;2022-10-16T16:46:15;14.70;97.90
51801;DHT22;37855;53.204;6.568;2022-10-16T16:48:41;14.60;98.60
51801;DHT22;37855;53.204;6.568;2022-10-16T16:51:09;14.60;99.00
51801;DHT22;37855;53.204;6.568;2022-10-16T16:53:40;14.50;99.40
51801;DHT22;37855;53.204;6.568;2022-10-16T16:56:07;14.50;99.80
51801;DHT22;37855;53.204;6.568;2022-10-16T16:58:33;14.60;99.90
51801;DHT22;37855;53.204;6.568;2022-10-16T17:01:00;14.30;99.90
51801;DHT22;37855;53.204;6.568;2022-10-16T17:03:29;14.30;99.90
51801;DHT22;37855;53.204;6.568;2022-10-16T17:06:06;14.20;99.90
51801;DHT22;37855;53.204;6.568;2022-10-16T17:08:34;14.20;99.90
51801;DHT22;37855;53.204;6.568;2022-10-16T17:11:00;14.20;99.90
51801;DHT22;37855;53.204;6.568;2022-10-16T17:13:27;14.10;99.90
51801;DHT22;37855;53.204;6.568;2022-10-16T17:15:53;14.10;99.90